Time;durP1;ratioP1;P1;durP2;ratioP2;P2;SDS_P1;SDS_P2;PMS_P1;PMS_P2;Temp;Humidity;BMP_temperature;BMP_pressure;BME280_temperature;BME280_humidity;BME280_pressure;Samples;Min_cycle;Max_cycle;Signal;HPM_P1;HPM_P2
2021/04/12 00:00:59;;;;;;;2.42;1.10;;;2.90;99.90;;;;;;5035088;28;20032;-83
2021/04/12 00:03:32;;;;;;;3.13;1.17;;;2.90;99.90;;;;;;5033889;28;20022;-82
2021/04/12 00:06:04;;;;;;;3.40;1.10;;;2.90;99.90;;;;;;5050318;28;20489;-82
2021/04/12 00:08:54;;;;;;;2.30;1.60;;;2.90;99.90;;;;;;5029059;28;20025;-83
2021/04/12 00:11:48;;;;;;;2.85;1.40;;;2.90;99.90;;;;;;5047521;28;20033;-82
2021/04/12 00:14:31;;;;;;;3.03;1.48;;;2.80;99.90;;;;;;5048655;28;20034;-82
2021/04/12 00:17:07;;;;;;;2.85;1.85;;;2.70;99.90;;;;;;5046765;28;20021;-82
2021/04/12 00:19:37;;;;;;;3.13;1.67;;;2.70;99.90;;;;;;5034714;28;20041;-82
2021/04/12 00:22:14;;;;;;;3.17;1.35;;;2.70;99.90;;;;;;5047372;28;20021;-82
2021/04/12 00:25:03;;;;;;;3.63;1.70;;;2.70;99.90;;;;;;5047563;28;20021;-82
2021/04/12 00:27:39;;;;;;;4.63;1.67;;;2.70;99.90;;;;;;5030692;28;20109;-82
2021/04/12 00:30:21;;;;;;;3.75;1.88;;;2.60;99.90;;;;;;5028935;28;20049;-82
2021/04/12 00:32:59;;;;;;;2.45;1.40;;;2.60;99.90;;;;;;5029017;28;20022;-82
2021/04/12 00:35:43;;;;;;;2.28;1.38;;;2.60;99.90;;;;;;5033937;28;20056;-82
2021/04/12 00:38:18;;;;;;;2.28;1.30;;;2.60;99.90;;;;;;5049415;28;20381;-82
2021/04/12 00:40:57;;;;;;;3.08;1.50;;;2.60;99.90;;;;;;5047094;28;20514;-82
2021/04/12 00:43:54;;;;;;;3.88;1.58;;;2.50;99.90;;;;;;5047303;28;20050;-83
2021/04/12 00:46:57;;;;;;;2.95;1.55;;;2.50;99.90;;;;;;5030817;28;20026;-83
2021/04/12 00:50:06;;;;;;;3.95;1.67;;;2.40;99.90;;;;;;5048107;28;20033;-82
2021/04/12 00:53:02;;;;;;;3.97;1.92;;;2.30;99.90;;;;;;5030867;28;20518;-82
2021/04/12 00:55:48;;;;;;;1.98;1.55;;;2.30;99.90;;;;;;5048885;28;20505;-83
2021/04/12 00:58:30;;;;;;;2.90;1.65;;;2.20;99.90;;;;;;5032625;28;20040;-83
2021/04/12 01:01:11;;;;;;;2.50;1.48;;;2.10;99.90;;;;;;5048450;28;20022;-82
2021/04/12 01:04:06;;;;;;;4.68;1.88;;;2.10;99.90;;;;;;5046053;28;20018;-82
2021/04/12 01:07:13;;;;;;;2.05;1.42;;;2.10;99.90;;;;;;5015097;28;20033;-83
2021/04/12 01:10:10;;;;;;;2.42;1.63;;;2.10;99.90;;;;;;5032696;28;20144;-83
2021/04/12 01:13:09;;;;;;;4.00;1.55;;;2.00;99.90;;;;;;5033989;28;20377;-82
2021/04/12 01:15:56;;;;;;;2.90;1.77;;;2.00;99.90;;;;;;5031793;28;20026;-83
2021/04/12 01:18:44;;;;;;;4.40;2.05;;;2.00;99.90;;;;;;5032862;28;20025;-83
2021/04/12 01:21:31;;;;;;;2.40;1.48;;;2.00;99.90;;;;;;5048449;28;20524;-82
2021/04/12 01:24:19;;;;;;;3.53;2.25;;;2.00;99.90;;;;;;5046477;28;20147;-82
2021/04/12 01:27:27;;;;;;;6.68;2.83;;;2.00;99.90;;;;;;5044669;28;20512;-83
2021/04/12 01:30:31;;;;;;;3.58;2.08;;;2.00;99.90;;;;;;5047095;28;20079;-82
2021/04/12 01:33:12;;;;;;;4.95;2.15;;;2.00;99.90;;;;;;5033510;28;20107;-82
2021/04/12 01:36:04;;;;;;;4.05;1.55;;;2.00;99.90;;;;;;5031771;28;20021;-83
2021/04/12 01:38:35;;;;;;;3.63;1.80;;;2.00;99.90;;;;;;5048035;28;20043;-83
2021/04/12 01:41:24;;;;;;;4.82;1.80;;;2.00;99.90;;;;;;5046254;28;20017;-83
2021/04/12 01:44:02;;;;;;;1.67;1.27;;;2.00;99.90;;;;;;5043218;28;20045;-83
2021/04/12 01:46:41;;;;;;;3.55;1.20;;;1.90;99.90;;;;;;5045867;28;20025;-83
2021/04/12 01:49:10;;;;;;;5.68;1.23;;;2.00;99.90;;;;;;5030787;28;20018;-83
2021/04/12 01:51:41;;;;;;;3.53;1.43;;;2.00;99.90;;;;;;5031831;28;20427;-83
2021/04/12 01:54:13;;;;;;;2.50;1.55;;;2.00;99.90;;;;;;5031674;28;20244;-83
2021/04/12 01:57:02;;;;;;;2.28;1.60;;;2.00;99.90;;;;;;5045484;28;20017;-83
2021/04/12 01:59:46;;;;;;;2.20;1.57;;;1.90;99.90;;;;;;5044920;28;20101;-84
2021/04/12 02:02:23;;;;;;;2.78;1.85;;;1.90;99.90;;;;;;5032373;28;20260;-83
2021/04/12 02:05:20;;;;;;;4.40;2.47;;;1.80;99.90;;;;;;5032145;28;20481;-83
2021/04/12 02:08:17;;;;;;;4.35;2.53;;;1.80;99.90;;;;;;5047210;28;20116;-83
2021/04/12 02:11:04;;;;;;;5.18;2.92;;;1.80;99.90;;;;;;5045032;28;20370;-83
2021/04/12 02:14:15;;;;;;;6.28;2.92;;;1.70;99.90;;;;;;5042988;28;20374;-83
2021/04/12 02:17:15;;;;;;;7.95;4.00;;;1.80;99.90;;;;;;5029721;28;20021;-83
2021/04/12 02:19:45;;;;;;;6.85;4.07;;;1.80;99.90;;;;;;5046390;28;20147;-82
2021/04/12 02:22:40;;;;;;;6.75;4.35;;;1.70;99.90;;;;;;5046853;28;20477;-83
2021/04/12 02:25:32;;;;;;;7.82;4.22;;;1.70;99.90;;;;;;5031769;28;20033;-83
2021/04/12 02:28:28;;;;;;;9.05;4.10;;;1.70;99.90;;;;;;5031980;28;20022;-83
2021/04/12 02:31:30;;;;;;;6.57;4.07;;;1.70;99.90;;;;;;5026439;28;20029;-83
2021/04/12 02:34:19;;;;;;;9.02;4.53;;;1.70;99.90;;;;;;5031779;28;20100;-83
2021/04/12 02:36:56;;;;;;;7.35;4.55;;;1.70;99.90;;;;;;5011461;28;20740;-83
2021/04/12 02:39:40;;;;;;;6.80;3.75;;;1.70;99.90;;;;;;5046890;28;20029;-83
2021/04/12 02:42:31;;;;;;;6.60;4.45;;;1.70;99.90;;;;;;5025344;28;556465;-83
2021/04/12 02:45:21;;;;;;;11.00;5.35;;;1.60;99.90;;;;;;5044997;28;20124;-86
2021/04/12 02:47:57;;;;;;;11.68;6.22;;;1.60;99.90;;;;;;5016278;28;20469;-85
2021/04/12 02:50:49;;;;;;;9.80;4.97;;;1.50;99.90;;;;;;5028618;28;20034;-86
2021/04/12 02:53:44;;;;;;;8.63;4.70;;;1.50;99.90;;;;;;5031224;28;20036;-85
2021/04/12 02:56:31;;;;;;;8.02;3.95;;;1.50;99.90;;;;;;5002582;28;20037;-86
2021/04/12 02:59:08;;;;;;;6.65;4.88;;;1.50;99.90;;;;;;5029362;28;20025;-85
2021/04/12 03:02:04;;;;;;;6.22;4.47;;;1.50;99.90;;;;;;5018265;28;20065;-86
2021/04/12 03:04:51;;;;;;;7.45;4.47;;;1.50;99.90;;;;;;5044966;28;20389;-86
2021/04/12 03:07:25;;;;;;;10.18;4.18;;;1.50;99.90;;;;;;5032438;28;20029;-86
2021/04/12 03:10:38;;;;;;;6.25;4.07;;;1.50;99.90;;;;;;5017477;28;20144;-86
2021/04/12 03:13:33;;;;;;;5.15;3.72;;;1.50;99.90;;;;;;4974800;28;20024;-86
2021/04/12 03:16:36;;;;;;;7.82;4.85;;;1.50;99.90;;;;;;5045907;28;20608;-86
2021/04/12 03:19:40;;;;;;;9.88;4.50;;;1.50;99.90;;;;;;5029963;28;20045;-86
2021/04/12 03:22:26;;;;;;;9.07;4.10;;;1.50;99.90;;;;;;5007867;28;20125;-86
2021/04/12 03:24:57;;;;;;;8.32;4.55;;;1.50;99.90;;;;;;5028314;28;20021;-86
2021/04/12 03:28:07;;;;;;;5.30;4.28;;;1.50;99.90;;;;;;5045172;28;20034;-86
2021/04/12 03:30:44;;;;;;;8.02;5.38;;;1.50;99.90;;;;;;4972239;28;20058;-86
2021/04/12 03:33:34;;;;;;;9.35;5.13;;;1.40;99.90;;;;;;5029324;28;20045;-86
2021/04/12 03:36:15;;;;;;;8.55;5.65;;;1.40;99.90;;;;;;5032007;28;20026;-86
2021/04/12 03:39:05;;;;;;;9.20;5.25;;;1.40;99.90;;;;;;5046384;28;20014;-86
2021/04/12 03:42:03;;;;;;;8.80;5.18;;;1.40;99.90;;;;;;5031899;28;20029;-86
2021/04/12 03:44:47;;;;;;;9.00;5.40;;;1.40;99.90;;;;;;5030595;28;20037;-86
2021/04/12 03:47:47;;;;;;;7.82;5.95;;;1.40;99.90;;;;;;5028987;28;20078;-86
2021/04/12 03:50:25;;;;;;;8.90;5.43;;;1.30;99.90;;;;;;5030719;28;20104;-86
2021/04/12 03:53:12;;;;;;;10.35;5.18;;;1.30;99.90;;;;;;5031860;28;20485;-86
2021/04/12 03:56:05;;;;;;;7.72;4.25;;;1.40;99.90;;;;;;5030933;28;20385;-86
2021/04/12 03:58:52;;;;;;;5.65;3.67;;;1.40;99.90;;;;;;5029304;28;20017;-86
2021/04/12 04:01:52;;;;;;;7.03;3.80;;;1.30;99.90;;;;;;5029191;28;20436;-86
2021/04/12 04:04:46;;;;;;;5.40;2.53;;;1.30;99.90;;;;;;5027955;28;20512;-86
2021/04/12 04:07:39;;;;;;;4.65;2.90;;;1.40;99.90;;;;;;5044270;28;20033;-87
2021/04/12 04:10:17;;;;;;;3.95;2.47;;;1.40;99.90;;;;;;5028356;28;20071;-86
2021/04/12 04:13:00;;;;;;;5.35;3.20;;;1.40;99.90;;;;;;5043342;28;20228;-86
2021/04/12 04:15:29;;;;;;;4.88;3.00;;;1.40;99.90;;;;;;5029116;28;20378;-86
2021/04/12 04:18:24;;;;;;;5.50;2.95;;;1.40;99.90;;;;;;5032498;28;20021;-86
2021/04/12 04:20:49;;;;;;;3.38;2.28;;;1.40;99.90;;;;;;5049924;28;20452;-86
2021/04/12 04:23:42;;;;;;;4.25;2.38;;;1.30;99.90;;;;;;5035278;28;20045;-86
2021/04/12 04:26:23;;;;;;;5.95;2.50;;;1.40;99.90;;;;;;5033877;28;20021;-86
2021/04/12 04:29:03;;;;;;;3.35;2.50;;;1.40;99.90;;;;;;5021993;28;20104;-85
2021/04/12 04:32:33;;;;;;;4.72;2.45;;;1.40;99.90;;;;;;5035106;28;20026;-86
2021/04/12 04:35:36;;;;;;;5.03;3.13;;;1.50;99.90;;;;;;4971478;28;20043;-86
2021/04/12 04:38:26;;;;;;;6.60;3.25;;;1.40;99.90;;;;;;4957985;28;20023;-86
2021/04/12 04:41:10;;;;;;;4.90;2.55;;;1.40;99.90;;;;;;5034939;28;20101;-86
2021/04/12 04:43:55;;;;;;;3.28;2.30;;;1.40;99.90;;;;;;5044004;28;20048;-86
2021/04/12 04:46:54;;;;;;;3.25;2.17;;;1.50;99.90;;;;;;5045484;28;20021;-86
2021/04/12 04:49:32;;;;;;;3.67;2.13;;;1.50;99.90;;;;;;5048816;28;20026;-86
2021/04/12 04:52:25;;;;;;;3.78;2.28;;;1.40;99.90;;;;;;5033566;28;20040;-86
2021/04/12 04:54:59;;;;;;;4.28;2.30;;;1.40;99.90;;;;;;5033440;28;20017;-86
2021/04/12 04:57:55;;;;;;;3.40;2.05;;;1.40;99.90;;;;;;5049418;28;20017;-86
2021/04/12 05:00:53;;;;;;;3.70;2.22;;;1.40;99.90;;;;;;5033234;28;20028;-86
2021/04/12 05:03:52;;;;;;;3.53;2.47;;;1.40;99.90;;;;;;5018093;28;20194;-86
2021/04/12 05:06:29;;;;;;;2.53;1.40;;;1.50;99.90;;;;;;5034538;28;20025;-86
2021/04/12 05:09:13;;;;;;;5.65;1.77;;;1.60;99.90;;;;;;5047216;28;20477;-86
2021/04/12 05:12:00;;;;;;;3.33;2.05;;;1.60;99.90;;;;;;5041598;28;20116;-86
2021/04/12 05:14:41;;;;;;;4.25;2.17;;;1.70;99.90;;;;;;5028603;28;20033;-87
2021/04/12 05:17:34;;;;;;;3.08;1.98;;;1.80;99.90;;;;;;5020346;28;20524;-87
2021/04/12 05:20:27;;;;;;;3.33;2.30;;;1.90;99.90;;;;;;5044519;28;20075;-87
2021/04/12 05:23:08;;;;;;;2.85;2.00;;;1.90;99.90;;;;;;5032520;28;20022;-87
2021/04/12 05:25:59;;;;;;;2.88;1.80;;;2.00;99.90;;;;;;5034731;28;20029;-85
2021/04/12 05:28:43;;;;;;;;;;;2.00;99.90;;;;;;5024535;28;20122;-86
2021/04/12 05:31:36;;;;;;;2.30;1.60;;;2.00;99.90;;;;;;5043569;28;20000;-83
2021/04/12 05:34:18;;;;;;;3.30;2.10;;;2.00;99.90;;;;;;5013958;28;20030;-83
2021/04/12 05:36:49;;;;;;;2.10;1.80;;;2.00;99.90;;;;;;5013027;28;20112;-83
2021/04/12 05:39:17;;;;;;;3.08;2.10;;;2.00;99.90;;;;;;5014690;28;20478;-83
2021/04/12 05:41:43;;;;;;;2.88;2.10;;;2.00;99.90;;;;;;5029318;28;20476;-83
2021/04/12 05:44:15;;;;;;;2.45;1.92;;;2.00;99.90;;;;;;5016404;28;20058;-84
2021/04/12 05:47:03;;;;;;;3.38;2.22;;;2.00;99.90;;;;;;5033180;28;20029;-88
2021/04/12 05:49:47;;;;;;;3.38;2.15;;;2.00;99.90;;;;;;5033140;28;20083;-86
2021/04/12 05:52:41;;;;;;;3.38;1.85;;;2.00;99.90;;;;;;5033271;28;20067;-88
2021/04/12 05:55:44;;;;;;;3.50;2.08;;;2.00;99.90;;;;;;5033564;28;20029;-86
2021/04/12 05:58:38;;;;;;;5.43;3.60;;;2.00;99.90;;;;;;5034043;28;20044;-86
2021/04/12 06:01:44;;;;;;;5.97;2.65;;;2.00;99.90;;;;;;5032624;28;20393;-86
2021/04/12 06:04:20;;;;;;;5.72;3.30;;;2.00;99.90;;;;;;5032757;28;20543;-86
2021/04/12 06:07:11;;;;;;;5.50;3.22;;;2.00;99.90;;;;;;5032764;28;20024;-88
2021/04/12 06:10:04;;;;;;;8.75;4.47;;;2.00;99.90;;;;;;5032675;28;20025;-86
2021/04/12 06:12:50;;;;;;;5.72;3.47;;;2.00;99.90;;;;;;5032805;28;20029;-86
2021/04/12 06:15:35;;;;;;;4.22;3.65;;;2.00;99.90;;;;;;5029184;28;20519;-85
2021/04/12 06:18:38;;;;;;;7.72;3.58;;;2.10;99.90;;;;;;5047409;28;20500;-86
2021/04/12 06:21:34;;;;;;;3.88;3.33;;;2.10;99.90;;;;;;5013952;28;20028;-86
2021/04/12 06:24:08;;;;;;;4.70;3.13;;;2.20;99.90;;;;;;5029112;28;20026;-85
2021/04/12 06:27:09;;;;;;;6.25;3.85;;;2.20;99.90;;;;;;5028995;28;20053;-86
2021/04/12 06:29:59;;;;;;;4.55;3.28;;;2.20;99.90;;;;;;5018245;28;20018;-86
2021/04/12 06:32:49;;;;;;;4.40;3.13;;;2.20;99.90;;;;;;5018430;28;20067;-87
2021/04/12 06:35:36;;;;;;;6.47;3.72;;;2.30;99.90;;;;;;5022456;28;20033;-87
2021/04/12 06:38:26;;;;;;;4.32;3.35;;;2.30;99.90;;;;;;5030122;28;20101;-87
2021/04/12 06:41:07;;;;;;;5.38;3.83;;;2.30;99.90;;;;;;5038979;28;20041;-86
2021/04/12 06:43:51;;;;;;;5.53;3.92;;;2.40;99.90;;;;;;5030139;28;20041;-87
2021/04/12 06:46:46;;;;;;;5.20;4.00;;;2.40;99.90;;;;;;5030780;28;20558;-87
2021/04/12 06:49:31;;;;;;;5.72;3.88;;;2.50;99.90;;;;;;5029629;28;20057;-86
2021/04/12 06:52:34;;;;;;;4.95;4.10;;;2.50;99.90;;;;;;5030138;28;20048;-85
2021/04/12 06:55:20;;;;;;;5.60;3.90;;;2.60;99.90;;;;;;5023877;28;20553;-86
2021/04/12 06:58:13;;;;;;;5.53;3.88;;;2.70;99.90;;;;;;5031694;28;20075;-86
2021/04/12 07:01:05;;;;;;;5.47;3.53;;;2.70;99.90;;;;;;5031891;28;20024;-86
2021/04/12 07:03:45;;;;;;;5.65;3.50;;;2.80;99.90;;;;;;5031977;28;20051;-87
2021/04/12 07:06:26;;;;;;;4.20;3.15;;;2.80;99.90;;;;;;5031766;28;20408;-87
2021/04/12 07:09:42;;;;;;;8.30;3.45;;;2.90;99.90;;;;;;5032886;28;20152;-87
2021/04/12 07:12:31;;;;;;;5.78;3.53;;;3.00;99.90;;;;;;5031632;28;20025;-87
2021/04/12 07:15:24;;;;;;;6.63;3.25;;;3.10;99.90;;;;;;5031450;28;20473;-87
2021/04/12 07:18:08;;;;;;;5.53;3.50;;;3.10;99.90;;;;;;5031440;28;20025;-87
2021/04/12 07:20:40;;;;;;;5.30;3.17;;;3.20;99.90;;;;;;5011887;28;20072;-87
2021/04/12 07:23:33;;;;;;;10.57;3.40;;;3.30;99.90;;;;;;5042734;28;20017;-87
2021/04/12 07:26:10;;;;;;;7.57;3.67;;;3.40;99.90;;;;;;5031690;28;20028;-87
2021/04/12 07:29:14;;;;;;;8.40;3.65;;;3.50;99.90;;;;;;5030035;28;20022;-87
2021/04/12 07:32:00;;;;;;;7.45;3.40;;;3.80;99.90;;;;;;5015113;28;20445;-87
2021/04/12 07:35:11;;;;;;;6.93;2.63;;;4.00;99.90;;;;;;5028144;28;20030;-87
2021/04/12 07:37:41;;;;;;;4.45;3.00;;;4.30;99.90;;;;;;5028195;28;20124;-86
2021/04/12 07:40:48;;;;;;;7.78;2.55;;;4.40;99.90;;;;;;5028256;28;20022;-87
2021/04/12 07:43:52;;;;;;;6.88;2.92;;;4.50;99.90;;;;;;5027938;28;20042;-87
2021/04/12 07:46:29;;;;;;;4.68;2.80;;;4.50;99.90;;;;;;5028175;28;20079;-87
2021/04/12 07:49:37;;;;;;;4.75;2.58;;;4.40;99.90;;;;;;5012970;28;20029;-86
2021/04/12 07:52:24;;;;;;;4.82;2.78;;;4.50;99.90;;;;;;5024846;28;20026;-86
2021/04/12 07:55:01;;;;;;;4.28;2.05;;;4.60;99.90;;;;;;5036272;28;20428;-87
2021/04/12 07:57:45;;;;;;;5.18;2.10;;;4.60;99.90;;;;;;5036114;28;20017;-87
2021/04/12 08:00:31;;;;;;;5.60;3.90;;;4.60;99.90;;;;;;5034932;28;20116;-87
2021/04/12 08:03:21;;;;;;;4.13;3.17;;;4.60;99.90;;;;;;5036072;28;20021;-86
2021/04/12 08:06:22;;;;;;;6.95;2.95;;;4.60;99.90;;;;;;5034845;28;20029;-87
2021/04/12 08:09:36;;;;;;;5.10;1.98;;;4.60;99.90;;;;;;5004843;28;20037;-87
2021/04/12 08:12:35;;;;;;;3.90;1.40;;;4.70;99.90;;;;;;4975505;28;20049;-87
2021/04/12 08:15:25;;;;;;;4.45;0.98;;;4.70;99.90;;;;;;5035614;28;20039;-87
2021/04/12 08:18:19;;;;;;;4.45;1.08;;;4.80;99.90;;;;;;5034684;28;20026;-86
2021/04/12 08:21:25;;;;;;;7.07;2.80;;;5.00;99.90;;;;;;5034487;28;20021;-86
2021/04/12 08:24:31;;;;;;;2.88;0.80;;;5.30;99.90;;;;;;5034618;28;20132;-87
2021/04/12 08:26:57;;;;;;;6.43;1.60;;;5.30;99.90;;;;;;5033509;28;20448;-86
2021/04/12 08:30:00;;;;;;;2.35;0.90;;;5.30;99.90;;;;;;5033003;28;20025;-86
2021/04/12 08:33:13;;;;;;;4.38;0.98;;;5.40;99.90;;;;;;5050943;28;20030;-85
2021/04/12 08:35:59;;;;;;;4.63;1.40;;;5.40;99.90;;;;;;5050788;28;20036;-85
2021/04/12 08:38:52;;;;;;;3.20;0.77;;;5.60;99.90;;;;;;5045405;28;20026;-84
2021/04/12 08:41:39;;;;;;;4.53;0.80;;;5.50;99.20;;;;;;5029935;28;20032;-84
2021/04/12 08:44:12;;;;;;;3.20;1.10;;;5.30;99.70;;;;;;5032732;28;20041;-84
2021/04/12 08:46:49;;;;;;;2.47;1.00;;;5.30;99.90;;;;;;5033966;28;20021;-84
2021/04/12 08:49:42;;;;;;;3.25;1.10;;;5.20;99.90;;;;;;5033989;28;20068;-84
2021/04/12 08:52:31;;;;;;;5.15;1.00;;;5.00;99.90;;;;;;5034110;28;20022;-84
2021/04/12 08:55:34;;;;;;;2.22;0.70;;;4.80;99.90;;;;;;5033612;28;20025;-85
2021/04/12 08:58:22;;;;;;;6.05;0.80;;;4.70;99.90;;;;;;5014315;28;20053;-84
2021/04/12 09:01:15;;;;;;;3.38;1.00;;;4.60;99.90;;;;;;5034768;28;20021;-84
2021/04/12 09:04:09;;;;;;;6.10;1.25;;;4.60;99.90;;;;;;5035171;28;20075;-85
2021/04/12 09:06:56;;;;;;;3.92;1.10;;;4.80;99.90;;;;;;5033601;28;20148;-84
2021/04/12 09:09:52;;;;;;;3.47;1.20;;;5.00;99.90;;;;;;5033670;28;20037;-85
2021/04/12 09:12:20;;;;;;;3.65;1.20;;;5.30;99.90;;;;;;5034841;28;20072;-85
2021/04/12 09:15:00;;;;;;;3.38;0.90;;;5.40;99.90;;;;;;5033292;28;20029;-85
2021/04/12 09:17:35;;;;;;;4.05;2.10;;;5.50;99.90;;;;;;5014947;28;20101;-85
2021/04/12 09:20:34;;;;;;;5.22;4.10;;;5.50;99.40;;;;;;5013610;28;20026;-85
2021/04/12 09:23:21;;;;;;;6.72;6.13;;;5.40;99.60;;;;;;5014808;28;20026;-85
2021/04/12 09:26:15;;;;;;;6.78;5.80;;;5.20;99.50;;;;;;5013566;28;20113;-85
2021/04/12 09:29:19;;;;;;;3.83;1.95;;;5.00;99.90;;;;;;5014642;28;20466;-85
2021/04/12 09:32:11;;;;;;;3.30;1.00;;;5.00;99.90;;;;;;5013280;28;20038;-85
2021/04/12 09:34:42;;;;;;;3.65;1.27;;;4.90;99.90;;;;;;5020568;28;20026;-85
2021/04/12 09:37:26;;;;;;;2.00;1.13;;;4.80;99.90;;;;;;5033019;28;20014;-85
2021/04/12 09:40:12;;;;;;;3.65;1.10;;;4.80;99.90;;;;;;5034470;28;20102;-85
2021/04/12 09:43:10;;;;;;;2.22;1.08;;;4.70;99.90;;;;;;5032831;28;20136;-85
2021/04/12 09:45:50;;;;;;;3.58;1.10;;;5.00;99.90;;;;;;5032744;28;20018;-85
2021/04/12 09:48:47;;;;;;;4.05;1.05;;;5.60;99.90;;;;;;5032986;28;20066;-85
2021/04/12 09:51:40;;;;;;;4.05;1.20;;;7.20;99.90;;;;;;5032679;28;20072;-85
2021/04/12 09:54:37;;;;;;;2.33;1.00;;;9.20;94.70;;;;;;5014233;28;20057;-85
2021/04/12 09:57:30;;;;;;;2.88;0.90;;;10.40;87.90;;;;;;5033238;28;20041;-85
2021/04/12 10:00:37;;;;;;;2.65;0.90;;;10.90;83.70;;;;;;5031084;28;20099;-85
2021/04/12 10:03:35;;;;;;;1.85;0.90;;;11.50;82.20;;;;;;4988665;28;20080;-85
2021/04/12 10:06:24;;;;;;;2.28;0.80;;;11.80;76.70;;;;;;5032904;28;20014;-85
2021/04/12 10:09:27;;;;;;;2.85;0.90;;;11.50;77.70;;;;;;5025597;28;20431;-85
2021/04/12 10:12:37;;;;;;;1.65;0.93;;;11.00;75.70;;;;;;5030472;28;20028;-85
2021/04/12 10:15:21;;;;;;;1.92;0.90;;;11.50;74.50;;;;;;5048085;28;20497;-85
2021/04/12 10:18:05;;;;;;;0.90;0.50;;;11.70;75.00;;;;;;5032415;28;20034;-85
2021/04/12 10:20:42;;;;;;;0.68;0.52;;;11.70;73.70;;;;;;5033478;28;20021;-85
2021/04/12 10:23:18;;;;;;;0.88;0.43;;;11.70;72.80;;;;;;5032343;28;20017;-85
2021/04/12 10:26:12;;;;;;;1.73;0.70;;;9.80;76.50;;;;;;5032080;28;20491;-85
2021/04/12 10:28:55;;;;;;;1.45;0.60;;;8.10;83.00;;;;;;5033472;28;20493;-85
2021/04/12 10:31:27;;;;;;;1.48;0.60;;;9.00;90.20;;;;;;5032049;28;20025;-84
2021/04/12 10:34:25;;;;;;;1.17;0.93;;;10.80;85.00;;;;;;5032284;28;20025;-85
2021/04/12 10:37:20;;;;;;;0.70;0.50;;;12.10;76.30;;;;;;5021514;28;20041;-85
2021/04/12 10:40:00;;;;;;;1.67;0.70;;;11.90;72.50;;;;;;5013436;28;20100;-84
2021/04/12 10:42:41;;;;;;;2.38;0.60;;;10.10;73.30;;;;;;5032465;28;20045;-83
2021/04/12 10:45:10;;;;;;;1.00;0.50;;;9.50;80.00;;;;;;5029151;28;20017;-83
2021/04/12 10:48:02;;;;;;;0.60;0.47;;;9.30;80.20;;;;;;5031367;28;20028;-83
2021/04/12 10:50:34;;;;;;;0.88;0.40;;;9.00;83.30;;;;;;5027316;28;20018;-83
2021/04/12 10:53:11;;;;;;;0.93;0.50;;;8.90;81.10;;;;;;5032549;28;20017;-83
2021/04/12 10:55:45;;;;;;;2.55;0.80;;;10.30;80.60;;;;;;5032401;28;20026;-83
2021/04/12 10:58:37;;;;;;;1.77;0.70;;;10.30;76.40;;;;;;5029146;28;20053;-83
2021/04/12 11:01:11;;;;;;;1.20;0.90;;;12.10;77.10;;;;;;5040338;28;20061;-82
2021/04/12 11:03:46;;;;;;;1.48;0.77;;;13.80;67.90;;;;;;5028702;28;20029;-83
2021/04/12 11:06:21;;;;;;;1.50;0.77;;;13.50;62.20;;;;;;5029362;28;20071;-82
2021/04/12 11:08:55;;;;;;;1.90;1.00;;;12.50;64.20;;;;;;5011980;28;20053;-82
2021/04/12 11:11:31;;;;;;;1.98;0.95;;;13.10;66.10;;;;;;5013133;28;20486;-83
2021/04/12 11:14:19;;;;;;;1.10;0.90;;;14.40;64.10;;;;;;5011956;28;20030;-83
2021/04/12 11:16:52;;;;;;;1.60;0.85;;;15.30;58.70;;;;;;5029160;28;20442;-84
2021/04/12 11:19:33;;;;;;;1.52;0.93;;;15.50;58.60;;;;;;5031885;28;20104;-82
2021/04/12 11:22:30;;;;;;;6.53;1.10;;;15.40;56.70;;;;;;5020974;28;20018;-83
2021/04/12 11:25:09;;;;;;;1.45;0.70;;;13.20;56.90;;;;;;5030022;28;20022;-82
2021/04/12 11:27:59;;;;;;;0.70;0.43;;;13.40;60.00;;;;;;5041094;28;20397;-82
2021/04/12 11:30:49;;;;;;;1.10;0.57;;;13.50;58.20;;;;;;5035289;28;20029;-82
2021/04/12 11:33:29;;;;;;;;;;;13.00;58.30;;;;;;5034039;28;20062;-82
2021/04/12 11:36:20;;;;;;;1.67;0.70;;;12.50;58.90;;;;;;5033728;28;19909;-81
2021/04/12 11:39:13;;;;;;;0.77;0.47;;;12.60;60.50;;;;;;5019668;28;20101;-82
2021/04/12 11:42:07;;;;;;;0.85;0.47;;;13.00;57.20;;;;;;5041129;28;20018;-82
2021/04/12 11:45:01;;;;;;;2.33;0.40;;;13.50;56.90;;;;;;5026761;28;20028;-82
2021/04/12 11:47:48;;;;;;;1.17;0.50;;;14.20;55.60;;;;;;5034110;28;20057;-82
2021/04/12 11:50:36;;;;;;;1.25;0.47;;;14.20;54.80;;;;;;5023035;28;20022;-82
2021/04/12 11:53:14;;;;;;;0.77;0.50;;;13.70;53.70;;;;;;5025961;28;20029;-82
2021/04/12 11:56:02;;;;;;;1.10;0.60;;;12.80;55.00;;;;;;5036319;28;20026;-82
2021/04/12 11:58:40;;;;;;;1.50;0.65;;;12.40;56.60;;;;;;5033505;28;20026;-81
2021/04/12 12:01:27;;;;;;;2.00;0.60;;;12.10;57.60;;;;;;5031438;28;20041;-81
2021/04/12 12:04:17;;;;;;;1.20;0.60;;;12.40;58.40;;;;;;5032742;28;20025;-82
2021/04/12 12:06:50;;;;;;;1.27;0.55;;;13.10;57.20;;;;;;5033828;28;20060;-82
2021/04/12 12:09:31;;;;;;;0.85;0.57;;;13.20;55.90;;;;;;5030507;28;20033;-80
2021/04/12 12:12:09;;;;;;;1.55;0.60;;;13.10;55.10;;;;;;5023996;28;20025;-82
2021/04/12 12:14:43;;;;;;;1.38;0.60;;;12.80;56.60;;;;;;5033153;28;20100;-82
2021/04/12 12:17:19;;;;;;;1.88;0.50;;;13.20;56.60;;;;;;5033891;28;20048;-82
2021/04/12 12:19:50;;;;;;;1.00;0.60;;;14.10;55.00;;;;;;5025844;28;20018;-82
2021/04/12 12:22:43;;;;;;;1.85;0.57;;;14.60;52.20;;;;;;5031201;28;20049;-82
2021/04/12 12:25:25;;;;;;;1.98;0.60;;;15.10;51.90;;;;;;5034861;28;20029;-82
2021/04/12 12:28:21;;;;;;;2.05;0.75;;;15.00;50.00;;;;;;5034754;28;20147;-82
2021/04/12 12:30:53;;;;;;;3.30;0.80;;;14.90;48.10;;;;;;5035277;28;20033;-81
2021/04/12 12:33:51;;;;;;;1.58;0.60;;;15.50;50.60;;;;;;5035595;28;20389;-82
2021/04/12 12:36:23;;;;;;;1.40;0.50;;;16.30;47.60;;;;;;5034866;28;20029;-82
2021/04/12 12:39:16;;;;;;;0.65;0.40;;;17.60;47.60;;;;;;5034189;28;20045;-82
2021/04/12 12:41:45;;;;;;;2.13;0.50;;;17.90;44.00;;;;;;5035246;28;20014;-82
2021/04/12 12:44:13;;;;;;;1.15;0.50;;;17.80;42.20;;;;;;5034071;28;20499;-82
2021/04/12 12:46:41;;;;;;;1.30;0.50;;;18.50;43.10;;;;;;5033971;28;20098;-82
2021/04/12 12:49:21;;;;;;;2.10;0.55;;;18.60;41.90;;;;;;5033905;28;20025;-82
2021/04/12 12:51:51;;;;;;;1.23;0.60;;;18.70;40.80;;;;;;5033921;28;20026;-82
2021/04/12 12:54:39;;;;;;;2.47;0.60;;;18.60;40.20;;;;;;5035286;28;20021;-82
2021/04/12 12:57:08;;;;;;;3.17;0.75;;;18.40;40.00;;;;;;5033313;28;20087;-82
2021/04/12 12:59:37;;;;;;;3.08;0.50;;;18.20;37.90;;;;;;5035103;28;20025;-79
2021/04/12 13:02:29;;;;;;;1.20;0.55;;;18.10;40.00;;;;;;5033786;28;20017;-79
2021/04/12 13:05:20;;;;;;;2.65;0.80;;;18.20;37.70;;;;;;5033461;28;20397;-79
2021/04/12 13:07:48;;;;;;;1.98;0.60;;;16.60;40.70;;;;;;5032776;28;20140;-81
2021/04/12 13:10:26;;;;;;;2.25;0.88;;;15.20;45.60;;;;;;5033491;28;20087;-79
2021/04/12 13:12:53;;;;;;;2.58;0.60;;;14.50;47.90;;;;;;5034051;28;20482;-79
2021/04/12 13:15:34;;;;;;;2.25;0.70;;;13.90;50.00;;;;;;5017158;28;20048;-79
2021/04/12 13:18:20;;;;;;;1.77;0.57;;;13.60;51.70;;;;;;5008515;28;20260;-79
2021/04/12 13:20:59;;;;;;;1.20;0.50;;;13.60;53.30;;;;;;5018187;28;20017;-77
2021/04/12 13:23:43;;;;;;;3.95;0.50;;;13.30;53.90;;;;;;5048086;28;20061;-78
2021/04/12 13:26:27;;;;;;;1.10;0.40;;;12.80;52.20;;;;;;5033321;28;20014;-78
2021/04/12 13:28:55;;;;;;;0.55;0.30;;;12.70;53.30;;;;;;5043095;28;20033;-78
2021/04/12 13:31:33;;;;;;;2.50;0.40;;;12.70;55.00;;;;;;5033171;28;20076;-78
2021/04/12 13:34:12;;;;;;;0.90;0.30;;;12.40;54.10;;;;;;5032064;28;20473;-78
2021/04/12 13:36:42;;;;;;;2.47;0.50;;;11.90;56.60;;;;;;5047650;28;20025;-78
2021/04/12 13:39:14;;;;;;;1.23;0.30;;;11.60;58.70;;;;;;5045035;28;20021;-79
2021/04/12 13:41:47;;;;;;;0.82;0.40;;;11.20;61.70;;;;;;5032968;28;20038;-80
2021/04/12 13:44:15;;;;;;;1.73;0.40;;;11.00;64.30;;;;;;5043443;28;20041;-78
2021/04/12 13:47:08;;;;;;;0.30;0.20;;;11.10;65.10;;;;;;5030419;28;20026;-79
2021/04/12 13:49:36;;;;;;;1.33;0.40;;;11.20;66.30;;;;;;5032219;28;20036;-79
2021/04/12 13:52:14;;;;;;;0.55;0.30;;;11.20;68.30;;;;;;5032917;28;20091;-80
2021/04/12 13:54:59;;;;;;;0.90;0.40;;;11.50;65.80;;;;;;5032305;28;20029;-82
2021/04/12 13:57:32;;;;;;;1.27;0.32;;;11.80;64.70;;;;;;5029626;28;20029;-80
2021/04/12 14:00:23;;;;;;;0.70;0.30;;;12.10;64.40;;;;;;5019070;28;20063;-81
2021/04/12 14:02:56;;;;;;;1.75;0.40;;;12.40;63.60;;;;;;5025928;28;20057;-80
2021/04/12 14:05:30;;;;;;;0.50;0.30;;;12.80;63.30;;;;;;5022807;28;20021;-79
2021/04/12 14:08:21;;;;;;;0.77;0.40;;;13.30;64.30;;;;;;5027709;28;20025;-81
2021/04/12 14:11:08;;;;;;;2.70;0.73;;;14.20;63.60;;;;;;5030882;28;20409;-81
2021/04/12 14:13:42;;;;;;;1.75;0.50;;;15.50;60.80;;;;;;5019779;28;20083;-81
2021/04/12 14:16:19;;;;;;;1.10;0.47;;;15.90;57.80;;;;;;5029340;28;20025;-84
2021/04/12 14:18:49;;;;;;;1.75;0.50;;;16.30;55.60;;;;;;5021471;28;20022;-82
2021/04/12 14:21:17;;;;;;;1.58;0.70;;;16.40;51.50;;;;;;5021955;28;20068;-82
2021/04/12 14:23:55;;;;;;;1.42;0.80;;;16.20;49.60;;;;;;5030745;28;20675;-82
2021/04/12 14:26:43;;;;;;;3.15;0.80;;;15.80;49.70;;;;;;5031463;28;20400;-81
2021/04/12 14:29:38;;;;;;;3.40;1.00;;;15.10;49.40;;;;;;5031614;28;20060;-84
2021/04/12 14:32:21;;;;;;;2.60;0.93;;;14.70;51.80;;;;;;5019184;28;20123;-86
2021/04/12 14:35:04;;;;;;;2.40;1.00;;;14.10;51.30;;;;;;5031899;28;20061;-86